createdAt,value
2016-05-24T12:27:14.927Z,0
2016-05-24T12:27:24.911Z,0
2016-05-24T12:27:35.052Z,0
2016-05-24T12:27:45.054Z,0
2016-05-24T12:27:54.882Z,0
2016-05-24T12:28:05.116Z,0
2016-05-24T12:28:15.007Z,0
2016-05-24T12:28:24.991Z,0
2016-05-24T12:28:34.820Z,0
2016-05-24T12:28:44.979Z,0
2016-05-24T12:28:54.807Z,0
2016-05-24T12:29:04.948Z,0
2016-05-24T12:29:15.151Z,0
2016-05-24T12:29:25.057Z,0
2016-05-24T12:29:35.041Z,0
2016-05-24T12:29:45.013Z,0
2016-05-24T12:29:55.044Z,0
2016-05-24T12:30:05.357Z,0
2016-05-24T12:30:15.013Z,0
2016-05-24T12:30:25.544Z,0
2016-05-24T12:30:34.857Z,0
2016-05-24T12:30:45.329Z,0
2016-05-24T12:30:55.032Z,0
2016-05-24T12:31:04.938Z,0
2016-05-24T12:31:14.938Z,0
2016-05-24T12:31:24.922Z,0
2016-05-24T12:31:34.907Z,0
2016-05-24T12:31:44.597Z,0
2016-05-24T12:31:55.003Z,0
2016-05-24T12:32:04.878Z,0
2016-05-24T12:32:14.550Z,0
2016-05-24T12:32:24.957Z,0
2016-05-24T12:32:34.941Z,0
2016-05-24T12:32:44.896Z,0
2016-05-24T12:32:54.521Z,0
2016-05-24T12:33:04.818Z,0
2016-05-24T12:33:14.724Z,0
2016-05-24T12:33:24.818Z,0
2016-05-24T12:33:34.834Z,0
2016-05-24T12:33:44.774Z,0
2016-05-24T12:33:54.618Z,0
2016-05-24T12:34:04.774Z,0
2016-05-24T12:34:14.602Z,0
2016-05-24T12:34:24.821Z,0
2016-05-24T12:34:34.602Z,0
2016-05-24T12:34:44.746Z,0
2016-05-24T12:34:54.418Z,0
2016-05-24T12:35:04.246Z,0
2016-05-24T12:35:14.699Z,0
2016-05-24T12:35:24.543Z,0
2016-05-24T12:35:34.699Z,0
2016-05-24T12:35:44.358Z,0
2016-05-24T12:35:54.733Z,0
2016-05-24T12:36:04.702Z,0
2016-05-24T12:36:14.655Z,0
2016-05-24T12:36:24.639Z,0
2016-05-24T12:36:34.577Z,0
2016-05-24T12:36:44.470Z,0
2016-05-24T12:36:54.298Z,0
2016-05-24T12:37:04.313Z,0
2016-05-24T12:37:14.610Z,0
2016-05-24T12:37:24.438Z,0
2016-05-24T12:37:34.423Z,0
2016-05-24T12:37:44.566Z,0
2016-05-24T12:37:54.551Z,0
2016-05-24T12:38:04.551Z,0
2016-05-24T12:38:14.379Z,0
2016-05-24T12:38:24.379Z,0
2016-05-24T12:38:34.519Z,0
2016-05-24T12:38:44.506Z,0
2016-05-24T12:38:54.537Z,0
2016-05-24T12:39:04.334Z,0
2016-05-24T12:39:14.475Z,0
2016-05-24T12:39:24.334Z,0
2016-05-24T12:39:34.459Z,0
2016-05-24T12:39:44.446Z,0
2016-05-24T12:39:54.446Z,0
2016-05-24T12:40:04.274Z,0
2016-05-24T12:40:14.274Z,0
2016-05-24T12:40:24.431Z,0
2016-05-24T12:40:34.399Z,0
2016-05-24T12:40:44.449Z,0
2016-05-24T12:40:54.246Z,0
2016-05-24T12:41:04.371Z,0
2016-05-24T12:41:14.465Z,0
2016-05-24T12:41:24.356Z,0
2016-05-24T12:41:34.371Z,0
2016-05-24T12:41:44.358Z,0
2016-05-24T12:41:54.326Z,0
2016-05-24T12:42:04.326Z,0
2016-05-24T12:42:14.373Z,0
2016-05-24T12:42:24.311Z,0
2016-05-24T12:42:34.029Z,0
2016-05-24T12:42:44.298Z,0
2016-05-24T12:42:54.064Z,0
2016-05-24T12:43:04.267Z,0
2016-05-24T12:43:14.220Z,0
2016-05-24T12:43:24.251Z,0
2016-05-24T12:43:34.236Z,0
2016-05-24T12:43:44.097Z,0
2016-05-24T12:43:54.316Z,0
2016-05-24T12:44:04.222Z,0
2016-05-24T12:44:14.988Z,0
2016-05-24T12:44:24.050Z,0
2016-05-24T12:44:34.191Z,0
2016-05-24T12:44:47.584Z,0
2016-05-24T12:44:54.022Z,0
2016-05-24T12:45:04.116Z,0
2016-05-24T12:45:14.459Z,0
2016-05-24T12:45:24.819Z,0
2016-05-24T12:45:34.741Z,0
2016-05-24T12:45:44.370Z,0
2016-05-24T12:45:54.120Z,0
2016-05-24T12:46:04.135Z,0
2016-05-24T12:46:14.541Z,0
2016-05-24T12:46:21.651Z,0
2016-05-24T12:46:30.901Z,0
2016-05-24T12:46:41.637Z,0
2016-05-24T12:46:51.747Z,0
2016-05-24T12:47:01.543Z,0
2016-05-24T12:47:11.450Z,0
2016-05-24T12:47:21.450Z,0
2016-05-24T12:47:31.450Z,0
2016-05-24T12:47:41.436Z,0
2016-05-24T12:47:51.577Z,0
2016-05-24T12:48:01.327Z,0
2016-05-24T12:48:11.561Z,0
2016-05-24T12:48:21.561Z,0
2016-05-24T12:48:31.889Z,0
2016-05-24T12:48:42.111Z,0
2016-05-24T12:48:52.877Z,0
2016-05-24T12:49:02.127Z,0
2016-05-24T12:49:14.111Z,0
2016-05-24T12:49:22.127Z,0
2016-05-24T12:49:32.127Z,0
2016-05-24T12:49:42.145Z,0
2016-05-24T12:49:52.661Z,0
2016-05-24T12:50:01.942Z,0
2016-05-24T12:50:12.083Z,0
2016-05-24T12:50:22.161Z,16
2016-05-24T12:50:32.161Z,64
2016-05-24T12:50:42.101Z,64
2016-05-24T12:50:51.914Z,64
2016-05-24T12:51:02.133Z,2
2016-05-24T12:51:12.086Z,1
2016-05-24T12:51:22.133Z,1
2016-05-24T12:51:31.804Z,0
2016-05-24T12:51:42.026Z,0
2016-05-24T12:51:51.792Z,0
2016-05-24T12:52:01.995Z,0
2016-05-24T12:52:11.901Z,0
2016-05-24T12:52:21.823Z,0
2016-05-24T12:52:32.011Z,0
2016-05-24T12:52:41.809Z,0
2016-05-24T12:52:51.809Z,0
2016-05-24T12:53:01.950Z,0
2016-05-24T12:53:12.075Z,0
2016-05-24T12:53:21.919Z,0
2016-05-24T12:53:31.919Z,0
2016-05-24T12:53:41.906Z,0
2016-05-24T12:53:51.922Z,0
2016-05-24T12:54:01.766Z,0
2016-05-24T12:54:11.891Z,0
2016-05-24T12:54:21.875Z,0
2016-05-24T12:54:31.859Z,0
2016-05-24T12:54:41.706Z,0
2016-05-24T12:54:52.144Z,0
2016-05-24T12:55:01.847Z,0
2016-05-24T12:55:11.847Z,0
2016-05-24T12:55:21.690Z,0
2016-05-24T12:55:31.815Z,0
2016-05-24T12:55:41.677Z,0
2016-05-24T12:55:51.505Z,0
2016-05-24T12:56:01.802Z,0
2016-05-24T12:56:11.802Z,0
2016-05-24T12:56:21.896Z,0
2016-05-24T12:56:31.880Z,0
2016-05-24T12:56:41.758Z,0
2016-05-24T12:56:51.758Z,0
2016-05-24T12:57:01.742Z,0
2016-05-24T12:57:11.742Z,0
2016-05-24T12:57:21.742Z,0
2016-05-24T12:57:31.711Z,0
2016-05-24T12:57:41.557Z,0
2016-05-24T12:57:51.791Z,0
2016-05-24T12:58:01.682Z,0
2016-05-24T12:58:11.697Z,0
2016-05-24T12:58:21.526Z,0
2016-05-24T12:58:31.697Z,0
2016-05-24T12:58:41.669Z,0
2016-05-24T12:58:51.654Z,0
2016-05-24T12:59:01.513Z,0
2016-05-24T12:59:13.247Z,0
2016-05-24T12:59:21.482Z,0
2016-05-24T12:59:31.622Z,3
2016-05-24T12:59:41.469Z,1
2016-05-24T12:59:53.328Z,1
2016-05-24T13:00:01.453Z,1
2016-05-24T13:00:11.516Z,1
2016-05-24T13:00:21.547Z,1
2016-05-24T13:00:31.594Z,4
2016-05-24T13:00:41.971Z,4
2016-05-24T13:00:51.377Z,4
2016-05-24T13:01:01.987Z,4
2016-05-24T13:01:12.002Z,4
2016-05-24T13:01:21.362Z,4
2016-05-24T13:01:31.565Z,4
2016-05-24T13:01:41.568Z,4
2016-05-24T13:01:51.474Z,4
2016-05-24T13:02:01.505Z,4
2016-05-24T13:02:11.333Z,4
2016-05-24T13:02:21.474Z,4
2016-05-24T13:02:31.458Z,4
2016-05-24T13:02:41.321Z,4
2016-05-24T13:02:51.461Z,4
2016-05-24T13:03:01.446Z,4
2016-05-24T13:03:11.430Z,4
2016-05-24T13:03:21.274Z,4
2016-05-24T13:03:31.258Z,4
2016-05-24T13:03:41.417Z,4
2016-05-24T13:03:51.245Z,4
2016-05-24T13:04:01.385Z,3
2016-05-24T13:04:14.776Z,3
2016-05-24T13:04:21.385Z,3
2016-05-24T13:04:31.370Z,3
2016-05-24T13:04:41.341Z,3
2016-05-24T14:02:07.324Z,3
2016-05-24T14:02:17.167Z,3
2016-05-24T14:02:27.308Z,3
2016-05-24T14:02:37.308Z,3
2016-05-24T14:02:56.872Z,3
2016-05-24T14:03:56.062Z,3
2016-05-24T14:04:01.234Z,3
2016-05-24T14:04:11.421Z,3
2016-05-24T14:04:21.374Z,3
2016-05-24T14:04:31.359Z,2
2016-05-24T14:04:41.425Z,3
2016-05-24T14:04:51.332Z,3
2016-05-24T14:05:01.160Z,3
2016-05-24T14:06:03.381Z,3
2016-05-24T14:06:08.538Z,0
2016-05-24T14:06:18.678Z,0
2016-05-24T14:06:28.663Z,7
2016-05-24T14:06:38.506Z,8
2016-05-24T14:06:48.696Z,8
2016-05-24T14:06:58.633Z,4
2016-05-24T14:07:08.618Z,3
2016-05-24T14:07:18.305Z,3
2016-05-24T14:07:28.555Z,3
2016-05-24T14:07:38.383Z,3
2016-05-24T14:07:48.699Z,3
2016-05-24T14:07:58.558Z,3
2016-05-24T14:08:08.590Z,3
2016-05-24T14:08:18.590Z,3
2016-05-24T14:08:28.527Z,3
2016-05-24T14:08:38.558Z,3
2016-05-24T14:08:48.232Z,3
2016-05-24T14:08:58.513Z,3
2016-05-24T14:09:08.388Z,3
2016-05-24T14:09:18.342Z,3
2016-05-24T14:09:28.326Z,3
2016-05-24T14:09:38.482Z,3
2016-05-24T14:09:48.470Z,3
2016-05-24T14:09:58.298Z,3
2016-05-24T14:10:08.532Z,3
2016-05-24T14:10:18.282Z,3
2016-05-24T14:10:28.423Z,3
2016-05-24T14:10:38.266Z,3
2016-05-24T14:10:48.254Z,3
2016-05-24T14:10:58.441Z,3
2016-05-24T14:11:08.473Z,3
2016-05-24T14:11:18.394Z,0
2016-05-24T14:14:48.311Z,3
2016-05-24T14:14:58.295Z,2
2016-05-24T14:15:08.154Z,0
2016-05-24T14:15:18.733Z,0
2016-05-24T14:15:28.139Z,0
2016-05-24T14:15:38.186Z,0
2016-05-24T14:15:48.626Z,0
2016-05-24T14:15:59.282Z,0
2016-05-24T14:16:08.157Z,0
2016-05-24T14:16:18.220Z,0
2016-05-24T14:16:28.236Z,2
2016-05-24T14:16:38.204Z,3
2016-05-24T14:16:48.207Z,3
2016-05-24T14:16:58.192Z,1
2016-05-24T14:17:08.176Z,0
2016-05-24T14:17:18.004Z,1
2016-05-24T14:17:28.145Z,1
2016-05-24T14:17:38.160Z,3
2016-05-24T14:17:47.992Z,2
2016-05-24T14:17:58.117Z,0
2016-05-24T14:18:08.117Z,0
2016-05-24T14:18:18.101Z,0
2016-05-24T14:18:28.101Z,1
2016-05-24T14:18:37.929Z,30
2016-05-24T14:18:48.087Z,51
2016-05-24T14:18:58.056Z,52
2016-05-24T14:19:08.056Z,53
2016-05-24T14:19:18.056Z,54
2016-05-24T14:19:28.040Z,53
2016-05-24T14:19:37.869Z,53
2016-05-24T14:19:47.872Z,51
2016-05-24T14:19:58.012Z,49
2016-05-24T14:20:07.997Z,48
2016-05-24T14:20:17.997Z,47
2016-05-24T14:20:27.981Z,47
2016-05-24T14:20:37.653Z,47
2016-05-24T14:20:47.968Z,48
2016-05-24T14:20:57.796Z,48
2016-05-24T14:21:07.796Z,48
2016-05-24T14:21:17.781Z,48
2016-05-24T14:21:27.921Z,48
2016-05-24T14:21:37.906Z,48
2016-05-24T14:21:47.909Z,49
2016-05-24T14:21:57.753Z,49
2016-05-24T14:22:07.878Z,48
2016-05-24T14:22:17.878Z,48
2016-05-24T14:22:27.706Z,48
2016-05-24T14:22:37.549Z,48
2016-05-24T14:22:47.848Z,48
2016-05-24T14:22:57.833Z,48
2016-05-24T14:23:07.833Z,47
2016-05-24T14:23:17.676Z,47
2016-05-24T14:23:27.817Z,46
2016-05-24T14:23:37.801Z,46
2016-05-24T14:23:47.789Z,45
2016-05-24T14:23:57.789Z,45
2016-05-24T14:24:07.804Z,45
2016-05-24T14:24:17.617Z,45
2016-05-24T14:24:27.789Z,46
2016-05-24T14:24:37.789Z,46
2016-05-24T14:24:47.589Z,46
2016-05-24T14:24:57.729Z,46
2016-05-24T14:25:07.714Z,45
2016-05-24T14:25:17.823Z,45
2016-05-24T14:25:27.542Z,44
2016-05-24T14:25:37.682Z,44
2016-05-24T14:25:47.684Z,42
2016-05-24T14:25:57.497Z,41
2016-05-24T14:26:07.497Z,40
2016-05-24T14:26:17.638Z,38
2016-05-24T14:26:27.638Z,36
2016-05-24T14:26:37.481Z,34
2016-05-24T14:26:47.609Z,33
2016-05-24T14:26:57.609Z,32
2016-05-24T14:27:07.594Z,31
2016-05-24T14:27:17.578Z,31
2016-05-24T14:27:27.406Z,30
2016-05-24T14:27:37.406Z,31
2016-05-24T14:27:47.550Z,31
2016-05-24T14:27:57.378Z,31
2016-05-24T14:28:07.534Z,32
2016-05-24T14:28:17.347Z,32
2016-05-24T14:28:27.347Z,33
2016-05-24T14:28:37.597Z,33
2016-05-24T14:28:47.489Z,34
2016-05-24T14:28:57.474Z,34
2016-05-24T14:29:07.458Z,35
2016-05-24T14:29:17.442Z,35
2016-05-24T14:29:27.458Z,36
2016-05-24T14:29:37.271Z,37
2016-05-24T14:29:47.430Z,37
2016-05-24T14:29:57.102Z,37
2016-05-24T14:30:07.805Z,37
2016-05-24T14:30:18.883Z,37
2016-05-24T14:30:27.352Z,37
2016-05-24T14:30:37.695Z,37
2016-05-24T14:30:48.041Z,38
2016-05-24T14:30:57.072Z,37
2016-05-24T14:31:07.151Z,37
2016-05-24T14:31:17.401Z,37
2016-05-24T14:31:27.307Z,37
2016-05-24T14:31:37.291Z,37
2016-05-24T14:31:47.294Z,37
2016-05-24T14:31:56.997Z,36
2016-05-24T14:32:07.263Z,37
2016-05-24T14:32:17.263Z,37
2016-05-24T14:32:27.247Z,37
2016-05-24T14:32:37.232Z,38
2016-05-24T14:32:47.094Z,37
2016-05-24T14:32:57.203Z,37
2016-05-24T14:33:07.203Z,37
2016-05-24T14:33:16.875Z,37
2016-05-24T14:33:27.032Z,37
2016-05-24T14:33:37.188Z,37
2016-05-24T14:33:47.159Z,37
2016-05-24T14:33:57.002Z,37
2016-05-24T14:34:06.830Z,37
2016-05-24T14:34:17.143Z,37
2016-05-24T14:34:26.971Z,37
2016-05-24T14:34:37.112Z,36
2016-05-24T14:34:47.116Z,36
2016-05-24T14:34:57.084Z,36
2016-05-24T14:35:06.913Z,36
2016-05-24T14:35:16.913Z,36
2016-05-24T14:35:27.053Z,36
2016-05-24T14:35:37.038Z,35
2016-05-24T14:35:46.883Z,36
2016-05-24T14:35:57.008Z,36
2016-05-24T14:36:07.024Z,36
2016-05-24T14:36:16.852Z,36
2016-05-24T14:36:26.993Z,35
2016-05-24T14:36:36.680Z,34
2016-05-24T14:36:46.963Z,34
2016-05-24T14:36:56.963Z,34
2016-05-24T14:37:06.948Z,33
2016-05-24T14:37:16.932Z,32
2016-05-24T14:37:26.917Z,31
2016-05-24T14:37:36.620Z,30
2016-05-24T14:37:46.921Z,29
2016-05-24T14:37:56.889Z,29
2016-05-24T14:38:06.733Z,29
2016-05-24T14:38:16.733Z,29
2016-05-24T14:38:26.858Z,29
2016-05-24T14:38:36.842Z,28
2016-05-24T14:38:46.688Z,27
2016-05-24T14:38:56.829Z,27
2016-05-24T14:39:06.813Z,26
2016-05-24T14:39:16.829Z,26
2016-05-24T14:39:26.798Z,27
2016-05-24T14:39:36.782Z,27
2016-05-24T14:39:46.612Z,26
2016-05-24T14:39:56.768Z,27
2016-05-24T14:40:06.753Z,28
2016-05-24T14:40:16.596Z,30
2016-05-24T14:40:26.721Z,31
2016-05-24T14:40:36.581Z,33
2016-05-24T14:40:46.710Z,34
2016-05-24T14:40:56.725Z,36
2016-05-24T14:41:06.538Z,37
2016-05-24T14:41:16.679Z,38
2016-05-24T14:41:26.350Z,38
2016-05-24T14:41:36.522Z,39
2016-05-24T14:41:46.634Z,40
2016-05-24T14:41:56.634Z,42
2016-05-24T14:42:06.727Z,44
2016-05-24T14:42:16.618Z,45
2016-05-24T14:42:26.431Z,46
2016-05-24T14:42:36.587Z,46
2016-05-24T14:42:46.590Z,45
2016-05-24T14:42:56.574Z,44
2016-05-24T14:43:06.559Z,43
2016-05-24T14:43:16.543Z,41
2016-05-24T14:43:26.527Z,41
2016-05-24T14:43:36.527Z,40
2016-05-24T14:43:46.358Z,41
2016-05-24T14:43:56.358Z,41
2016-05-24T14:44:06.499Z,42
2016-05-24T14:44:16.327Z,41
2016-05-24T14:44:26.483Z,41
2016-05-24T14:44:36.452Z,40
2016-05-24T14:44:46.298Z,39
2016-05-24T14:44:56.282Z,38
2016-05-24T14:45:06.439Z,37
2016-05-24T14:45:17.235Z,35
2016-05-24T14:45:26.689Z,35
2016-05-24T14:45:35.939Z,34
2016-05-24T14:45:46.363Z,32
2016-05-24T14:45:56.613Z,30
2016-05-24T14:46:06.488Z,29
2016-05-24T14:46:16.192Z,28
2016-05-24T14:46:26.035Z,26
2016-05-24T14:46:36.317Z,25
2016-05-24T14:46:46.319Z,23
2016-05-24T14:46:56.303Z,22
2016-05-24T14:47:06.303Z,21
2016-05-24T14:47:15.975Z,21
2016-05-24T14:47:26.115Z,20
2016-05-24T14:47:36.100Z,20
2016-05-24T14:47:46.259Z,19
2016-05-24T14:47:56.103Z,19
2016-05-24T14:48:06.228Z,18
2016-05-24T14:48:16.212Z,18
2016-05-24T14:48:26.212Z,18
2016-05-24T14:48:35.884Z,18
2016-05-24T14:48:46.184Z,18
2016-05-24T14:48:56.184Z,19
2016-05-24T14:49:06.153Z,19
2016-05-24T14:49:16.137Z,19
2016-05-24T14:49:26.137Z,19
2016-05-24T14:49:36.121Z,19
2016-05-24T14:49:45.984Z,20
2016-05-24T14:49:56.124Z,20
2016-05-24T14:50:06.093Z,21
2016-05-24T14:50:16.093Z,22
2016-05-24T14:50:26.078Z,23
2016-05-24T14:50:36.062Z,23
2016-05-24T14:50:46.048Z,24
2016-05-24T14:50:55.892Z,24
2016-05-24T14:51:06.033Z,24
2016-05-24T14:51:16.033Z,25
2016-05-24T14:51:25.861Z,25
2016-05-24T14:51:36.001Z,26
2016-05-24T14:51:45.989Z,26
2016-05-24T14:51:55.817Z,26
2016-05-24T14:52:05.817Z,26
2016-05-24T14:52:15.958Z,26
2016-05-24T14:52:25.942Z,27
2016-05-24T14:52:35.629Z,28
2016-05-24T14:52:45.914Z,28
2016-05-24T14:52:55.757Z,29
2016-05-24T14:53:05.898Z,30
2016-05-24T14:53:15.898Z,30
2016-05-24T14:53:25.726Z,30
2016-05-24T14:53:35.867Z,30
2016-05-24T14:53:45.853Z,31
2016-05-24T14:53:55.838Z,31
2016-05-24T14:54:05.541Z,33
2016-05-24T14:54:15.822Z,34
2016-05-24T14:54:25.509Z,34
2016-05-24T14:54:35.650Z,35
2016-05-24T14:54:45.481Z,36
2016-05-24T14:54:55.794Z,36
2016-05-24T14:55:05.762Z,37
2016-05-24T14:55:15.606Z,37
2016-05-24T14:55:25.747Z,38
2016-05-24T14:55:35.747Z,38
2016-05-24T14:55:45.733Z,38
2016-05-24T14:55:55.780Z,37
2016-05-24T14:56:05.546Z,37
2016-05-24T14:56:15.389Z,37
2016-05-24T14:56:25.671Z,37
2016-05-24T14:56:35.514Z,37
2016-05-24T14:56:45.362Z,37
2016-05-24T14:56:55.675Z,36
2016-05-24T14:57:05.643Z,36
2016-05-24T14:57:15.628Z,35
2016-05-24T14:57:25.612Z,35
2016-05-24T14:57:35.597Z,35
2016-05-24T14:57:45.599Z,36
2016-05-24T14:57:55.583Z,35
2016-05-24T14:58:05.567Z,35
2016-05-24T14:58:15.411Z,35
2016-05-24T14:58:25.239Z,34
2016-05-24T14:58:35.536Z,32
2016-05-24T14:58:45.523Z,31
2016-05-24T14:58:55.523Z,30
2016-05-24T14:59:05.492Z,29
2016-05-24T14:59:15.195Z,28
2016-05-24T14:59:25.320Z,28
2016-05-24T14:59:35.461Z,27
2016-05-24T14:59:45.479Z,27
2016-05-24T14:59:55.463Z,26
2016-05-24T15:00:05.635Z,27
2016-05-24T15:00:15.463Z,27
2016-05-24T15:00:25.604Z,27
2016-05-24T15:00:35.119Z,28
2016-05-24T15:00:46.075Z,28
2016-05-24T15:00:55.403Z,28
2016-05-24T15:01:05.622Z,28
2016-05-24T15:01:15.060Z,28
2016-05-24T15:01:25.341Z,28
2016-05-24T15:01:35.200Z,28
2016-05-24T15:01:45.344Z,27
2016-05-24T15:01:55.313Z,26
2016-05-24T15:02:05.156Z,25
2016-05-24T15:02:15.297Z,23
2016-05-24T15:02:25.281Z,21
2016-05-24T15:02:35.281Z,20
2016-05-24T15:02:45.113Z,19
2016-05-24T15:02:55.269Z,18
2016-05-24T15:03:05.081Z,18
2016-05-24T15:03:15.081Z,18
2016-05-24T15:03:25.253Z,18
2016-05-24T15:03:35.206Z,17
2016-05-24T15:03:44.896Z,17
2016-05-24T15:03:55.177Z,17
2016-05-24T15:04:05.177Z,18
2016-05-24T15:04:15.005Z,18
2016-05-24T15:04:25.005Z,18
2016-05-24T15:04:35.146Z,19
2016-05-24T15:04:44.977Z,19
2016-05-24T15:04:54.961Z,19
2016-05-24T15:05:05.118Z,19
2016-05-24T15:05:15.086Z,19
2016-05-24T15:05:24.946Z,19
2016-05-24T15:05:35.086Z,19
2016-05-24T15:05:44.916Z,18
2016-05-24T15:05:54.901Z,19
2016-05-24T15:06:05.026Z,19
2016-05-24T15:06:14.885Z,19
2016-05-24T15:06:25.010Z,19
2016-05-24T15:06:34.854Z,19
2016-05-24T15:06:44.841Z,20
2016-05-24T15:06:54.982Z,20
2016-05-24T15:07:04.982Z,20
2016-05-24T15:07:14.966Z,20
2016-05-24T15:07:24.794Z,21
2016-05-24T15:07:34.935Z,21
2016-05-24T15:07:44.938Z,21
2016-05-24T15:07:54.922Z,21
2016-05-24T15:08:04.751Z,21
2016-05-24T15:08:14.751Z,20
2016-05-24T15:08:24.891Z,20
2016-05-24T15:08:34.719Z,20
2016-05-24T15:08:44.706Z,20
2016-05-24T15:08:54.862Z,20
2016-05-24T15:09:04.690Z,20
2016-05-24T15:09:14.674Z,20
2016-05-24T15:09:24.659Z,21
2016-05-24T15:09:34.659Z,21
2016-05-24T15:09:44.803Z,21
2016-05-24T15:09:54.647Z,21
2016-05-24T15:10:04.772Z,21
2016-05-24T15:10:14.772Z,21
2016-05-24T15:10:24.600Z,21
2016-05-24T15:10:34.741Z,21
2016-05-24T15:10:44.743Z,21
2016-05-24T15:10:54.571Z,21
2016-05-24T15:11:04.727Z,20
2016-05-24T15:11:14.540Z,20
2016-05-24T15:11:24.555Z,20
2016-05-24T15:11:34.680Z,20
2016-05-24T15:11:44.512Z,20
2016-05-24T15:11:54.683Z,21
2016-05-24T15:12:04.496Z,20
2016-05-24T15:12:14.480Z,19
2016-05-24T15:12:24.652Z,19
2016-05-24T15:12:34.465Z,18
2016-05-24T15:12:44.468Z,18
2016-05-24T15:12:54.593Z,18
2016-05-24T15:13:04.436Z,18
2016-05-24T15:13:14.405Z,18
2016-05-24T15:13:24.561Z,18
2016-05-24T15:13:34.390Z,18
2016-05-24T15:13:44.376Z,18
2016-05-24T15:13:54.376Z,18
2016-05-24T15:14:04.517Z,18
2016-05-24T15:14:14.485Z,19
2016-05-24T15:14:24.329Z,19
2016-05-24T15:14:34.485Z,19
2016-05-24T15:14:44.473Z,19
2016-05-24T15:14:54.473Z,19
2016-05-24T15:15:04.801Z,20
2016-05-24T15:15:14.754Z,21
2016-05-24T15:15:24.441Z,22
2016-05-24T15:15:34.426Z,22
2016-05-24T15:15:44.663Z,23
2016-05-24T15:15:55.804Z,24
2016-05-24T15:16:05.116Z,25
2016-05-24T15:16:14.226Z,25
2016-05-24T15:16:24.226Z,26
2016-05-24T15:16:34.194Z,27
2016-05-24T15:16:44.353Z,27
2016-05-24T15:16:54.337Z,28
2016-05-24T15:17:04.337Z,29
2016-05-24T15:17:14.290Z,29
2016-05-24T15:17:24.134Z,30
2016-05-24T15:17:34.290Z,30
2016-05-24T15:17:44.278Z,30
2016-05-24T15:17:54.262Z,30
2016-05-24T15:18:04.246Z,31
2016-05-24T15:18:14.246Z,31
2016-05-24T15:18:24.231Z,31
2016-05-24T15:18:34.059Z,31
2016-05-24T15:18:44.201Z,31
2016-05-24T15:18:54.045Z,31
2016-05-24T15:19:04.030Z,31
2016-05-24T15:19:14.186Z,31
2016-05-24T15:19:24.155Z,31
2016-05-24T15:19:33.998Z,30
2016-05-24T15:19:44.142Z,29
2016-05-24T15:19:54.126Z,29
2016-05-24T15:20:04.126Z,28
2016-05-24T15:20:14.095Z,28
2016-05-24T15:20:24.142Z,28
2016-05-24T15:20:34.095Z,28
2016-05-24T15:20:44.067Z,27
2016-05-24T15:20:54.067Z,27
2016-05-24T15:21:03.895Z,27
2016-05-24T15:21:14.036Z,27
2016-05-24T15:21:24.036Z,27
2016-05-24T15:21:33.864Z,26
2016-05-24T15:21:44.007Z,26
2016-05-24T15:21:54.007Z,26
2016-05-24T15:22:03.851Z,25
2016-05-24T15:22:13.976Z,25
2016-05-24T15:22:23.960Z,25
2016-05-24T15:22:33.945Z,26
2016-05-24T15:22:43.931Z,25
2016-05-24T15:22:53.931Z,25
2016-05-24T15:23:03.916Z,25
2016-05-24T15:23:13.759Z,25
2016-05-24T15:23:23.916Z,25
2016-05-24T15:23:33.728Z,25
2016-05-24T15:23:43.872Z,25
2016-05-24T15:23:53.872Z,24
2016-05-24T15:24:03.715Z,24
2016-05-24T15:24:13.840Z,25
2016-05-24T15:24:23.669Z,24
2016-05-24T15:24:33.669Z,24
2016-05-24T15:24:43.499Z,24
2016-05-24T15:24:53.639Z,24
2016-05-24T15:25:03.780Z,24
2016-05-24T15:25:13.624Z,23
2016-05-24T15:25:23.764Z,24
2016-05-24T15:25:33.592Z,24
2016-05-24T15:25:43.752Z,24
2016-05-24T15:25:53.736Z,24
2016-05-24T15:26:03.564Z,24
2016-05-24T15:26:13.564Z,24
2016-05-24T15:26:23.689Z,24
2016-05-24T15:26:33.674Z,25
2016-05-24T15:26:43.521Z,25
2016-05-24T15:26:53.678Z,25
2016-05-24T15:27:03.646Z,27
2016-05-24T15:27:13.646Z,26
2016-05-24T15:27:23.631Z,27
2016-05-24T15:27:33.615Z,27
2016-05-24T15:27:43.616Z,28
2016-05-24T15:27:53.600Z,28
2016-05-24T15:28:03.585Z,28
2016-05-24T15:28:13.585Z,28
2016-05-24T15:28:23.413Z,28
2016-05-24T15:28:33.413Z,27
2016-05-24T15:28:43.557Z,27
2016-05-24T15:28:53.369Z,28
2016-05-24T15:29:03.525Z,26
2016-05-24T15:29:13.369Z,26
2016-05-24T15:29:23.494Z,25
2016-05-24T15:29:33.494Z,25
2016-05-24T15:29:43.466Z,25
2016-05-24T15:29:53.481Z,25
2016-05-24T15:30:03.466Z,25
2016-05-24T15:30:14.247Z,25
2016-05-24T15:30:23.325Z,26
2016-05-24T15:30:33.841Z,26
2016-05-24T15:30:44.141Z,26
2016-05-24T15:30:53.922Z,26
2016-05-24T15:31:03.078Z,26
2016-05-24T15:31:13.328Z,26
2016-05-24T15:31:23.219Z,26
2016-05-24T15:31:33.359Z,25
2016-05-24T15:31:43.346Z,25
2016-05-24T15:31:53.361Z,25
2016-05-24T15:32:03.158Z,25
2016-05-24T15:32:13.299Z,25
2016-05-24T15:32:23.299Z,25
2016-05-24T15:32:33.283Z,25
2016-05-24T15:32:43.286Z,25
2016-05-24T15:32:53.271Z,25
2016-05-24T15:33:03.114Z,25
2016-05-24T15:33:13.239Z,24
2016-05-24T15:33:23.239Z,26
2016-05-24T15:33:33.224Z,24
2016-05-24T15:33:43.227Z,24
2016-05-24T15:33:53.055Z,24
2016-05-24T15:34:03.039Z,24
2016-05-24T15:34:13.164Z,24
2016-05-24T15:34:23.196Z,24
2016-05-24T15:34:33.164Z,24
2016-05-24T15:34:43.151Z,24
2016-05-24T15:34:53.151Z,24
2016-05-24T15:35:03.119Z,25
2016-05-24T15:35:12.807Z,25
2016-05-24T15:35:23.104Z,25
2016-05-24T15:35:33.088Z,26
2016-05-24T15:35:42.919Z,26
2016-05-24T15:35:53.060Z,27
2016-05-24T15:36:03.044Z,26
2016-05-24T15:36:13.044Z,26
2016-05-24T15:36:23.044Z,26
2016-05-24T15:36:32.857Z,27
2016-05-24T15:36:43.016Z,27
2016-05-24T15:36:52.844Z,27
2016-05-24T15:37:02.829Z,26
2016-05-24T15:37:12.985Z,26
2016-05-24T15:37:22.954Z,26
2016-05-24T15:37:32.954Z,26
2016-05-24T15:37:42.956Z,27
2016-05-24T15:37:52.940Z,27
2016-05-24T15:38:02.784Z,27
2016-05-24T15:38:12.909Z,28
2016-05-24T15:38:22.752Z,28
2016-05-24T15:38:32.721Z,28
2016-05-24T15:38:42.724Z,28
2016-05-24T15:38:52.724Z,28
2016-05-24T15:39:02.896Z,28
2016-05-24T15:39:12.693Z,28
2016-05-24T15:39:22.677Z,28
2016-05-24T15:39:32.693Z,28
2016-05-24T15:39:42.821Z,29
2016-05-24T15:39:52.805Z,29
2016-05-24T15:40:02.790Z,29
2016-05-24T15:40:12.774Z,29
2016-05-24T15:40:22.774Z,29
2016-05-24T15:40:32.758Z,29
2016-05-24T15:40:42.761Z,29
2016-05-24T15:40:52.730Z,30
2016-05-24T15:41:02.715Z,31
2016-05-24T15:41:12.730Z,33
2016-05-24T15:41:22.699Z,32
2016-05-24T15:41:32.543Z,32
2016-05-24T15:41:42.685Z,32
2016-05-24T15:41:52.670Z,32
2016-05-24T15:42:02.670Z,32
2016-05-24T15:42:12.654Z,32
2016-05-24T15:42:22.638Z,32
2016-05-24T15:42:32.467Z,32
2016-05-24T15:42:42.610Z,32
2016-05-24T15:42:52.454Z,32
2016-05-24T15:43:02.454Z,32
2016-05-24T15:43:12.579Z,31
2016-05-24T15:43:22.423Z,31
2016-05-24T15:43:32.563Z,30
2016-05-24T15:43:42.550Z,29
2016-05-24T15:43:52.378Z,29
2016-05-24T15:44:02.378Z,28
2016-05-24T15:44:12.378Z,27
2016-05-24T15:44:22.347Z,26
2016-05-24T15:44:32.347Z,25
2016-05-24T15:44:42.476Z,25
2016-05-24T15:44:52.476Z,25
2016-05-24T15:45:02.476Z,24
2016-05-24T15:45:12.460Z,23
2016-05-24T15:45:22.491Z,23
2016-05-24T15:45:32.444Z,22
2016-05-24T15:45:42.432Z,22
2016-05-24T15:45:52.369Z,22
2016-05-24T15:46:02.807Z,21
2016-05-24T15:46:12.541Z,21
2016-05-24T15:46:22.619Z,21
2016-05-24T15:46:32.197Z,21
2016-05-24T15:46:42.356Z,21
2016-05-24T15:46:52.340Z,21
2016-05-24T15:47:02.168Z,21
2016-05-24T15:47:12.324Z,21
2016-05-24T15:47:22.309Z,21
2016-05-24T15:47:31.981Z,21
2016-05-24T15:47:42.277Z,20
2016-05-24T15:47:52.279Z,20
2016-05-24T15:48:02.279Z,20
2016-05-24T15:48:12.248Z,20
2016-05-24T15:48:22.248Z,20
2016-05-24T15:48:32.248Z,20
2016-05-24T15:48:42.061Z,20
2016-05-24T15:48:52.049Z,20
2016-05-24T15:49:02.221Z,20
2016-05-24T15:49:12.205Z,20
2016-05-24T15:49:22.018Z,19
2016-05-24T15:49:31.862Z,19
2016-05-24T15:49:41.987Z,18
2016-05-24T15:49:52.004Z,18
2016-05-24T15:50:01.989Z,18
2016-05-24T15:50:12.114Z,17
2016-05-24T15:50:22.114Z,17
2016-05-24T15:50:32.098Z,16
2016-05-24T15:50:41.785Z,16
2016-05-24T15:50:52.085Z,15
2016-05-24T15:51:02.070Z,15
2016-05-24T15:51:12.101Z,15
2016-05-24T15:51:21.898Z,14
2016-05-24T15:51:31.882Z,14
2016-05-24T15:51:41.867Z,14
2016-05-24T15:51:52.009Z,14
2016-05-24T15:52:02.025Z,14
2016-05-24T15:52:11.994Z,13
2016-05-24T15:52:21.681Z,14
2016-05-24T15:52:31.962Z,13
2016-05-24T15:52:41.947Z,14
2016-05-24T15:52:51.950Z,14
2016-05-24T15:53:01.934Z,14
2016-05-24T15:53:11.918Z,14
2016-05-24T15:53:21.606Z,13
2016-05-24T15:53:31.887Z,13